Time;durP1;ratioP1;P1;durP2;ratioP2;P2;SDS_P1;SDS_P2;PMS_P1;PMS_P2;Temp;Humidity;BMP_temperature;BMP_pressure;BME280_temperature;BME280_humidity;BME280_pressure;Samples;Min_cycle;Max_cycle;Signal;HPM_P1;HPM_P2
2021/01/02 13:33:51;;;;;;;67.50;28.83;;;4.40;99.90;;;-143.32;100.00;97567.25;5422711;24;20510;-91
2021/01/02 15:19:37;;;;;;;64.40;26.70;;;3.80;99.90;;;-143.32;100.00;97593.84;4916064;24;20272;-90
2021/01/02 15:22:14;;;;;;;76.43;29.77;;;3.80;99.90;;;-143.32;100.00;97591.81;4754939;30;20471;-90
2021/01/02 15:24:42;;;;;;;54.83;26.33;;;3.80;99.90;;;-143.32;100.00;97591.81;4761117;30;20463;-85
2021/01/02 15:27:09;;;;;;;62.50;29.10;;;3.80;99.90;;;-143.32;100.00;97600.00;4772390;30;20471;-84
2021/01/02 15:29:37;;;;;;;61.40;29.17;;;3.90;99.90;;;-143.32;100.00;97571.34;4772547;30;20467;-84
2021/01/02 15:32:04;;;;;;;57.53;28.03;;;3.90;99.90;;;-143.32;100.00;97567.25;4763834;30;20470;-85
2021/01/02 15:34:31;;;;;;;58.90;28.20;;;3.90;99.90;;;-143.32;100.00;97577.50;4772289;30;20498;-85
2021/01/02 15:37:03;;;;;;;61.50;26.90;;;4.00;99.90;;;-143.32;100.00;97610.22;4772187;30;20545;-85
2021/01/02 15:39:35;;;;;;;54.07;25.67;;;4.00;99.90;;;-143.32;100.00;97640.91;4756910;30;20892;-84
2021/01/02 15:42:02;;;;;;;51.27;23.90;;;4.00;99.90;;;-143.32;100.00;97618.41;4754342;30;20786;-84
2021/01/02 15:44:34;;;;;;;54.93;25.50;;;4.00;99.90;;;-143.32;100.00;97581.59;4754348;30;20486;-85
2021/01/02 15:47:08;;;;;;;52.70;25.37;;;4.00;99.90;;;-143.32;100.00;97608.19;4754540;30;20448;-84
2021/01/02 15:49:35;;;;;;;62.63;28.20;;;4.10;99.90;;;-143.32;100.00;97546.81;4754523;30;20459;-86
2021/01/02 15:52:06;;;;;;;57.60;25.60;;;4.10;99.90;;;-143.32;100.00;97573.41;4754350;30;20466;-85
2021/01/02 15:54:34;;;;;;;60.33;27.50;;;4.00;99.90;;;-143.32;100.00;97587.72;4754312;30;20519;-84
2021/01/02 15:57:01;;;;;;;71.83;27.03;;;4.10;99.90;;;-143.32;100.00;97614.31;4754693;30;20975;-83
2021/01/02 15:59:28;;;;;;;58.00;25.90;;;4.10;99.90;;;-143.32;100.00;97569.31;4754498;30;20468;-84
2021/01/02 16:01:57;;;;;;;51.57;25.00;;;4.10;99.90;;;-143.32;100.00;97600.00;4754119;30;20813;-84
2021/01/02 16:04:25;;;;;;;47.53;24.57;;;4.10;99.90;;;-143.32;100.00;97540.66;4754279;30;20563;-85
2021/01/02 16:06:57;;;;;;;53.13;25.93;;;4.10;99.90;;;-143.32;100.00;97600.00;4755031;30;20468;-84
2021/01/02 16:09:27;;;;;;;71.43;27.33;;;4.10;99.90;;;-143.32;100.00;97593.84;4756203;30;21002;-85
2021/01/02 16:11:57;;;;;;;68.43;27.30;;;4.00;99.90;;;-143.32;100.00;97614.31;4756820;30;20532;-88
2021/01/02 16:14:27;;;;;;;54.40;25.20;;;4.00;99.90;;;-143.32;100.00;97614.31;4755706;30;21012;-88
2021/01/02 16:16:54;;;;;;;56.93;26.07;;;4.00;99.90;;;-143.32;100.00;97602.03;4754181;30;20464;-88
2021/01/02 16:19:23;;;;;;;61.27;25.50;;;3.90;99.90;;;-143.32;100.00;97587.72;4753068;30;20530;-87
2021/01/02 16:21:55;;;;;;;53.73;24.87;;;3.90;99.90;;;-143.32;100.00;97618.41;4753619;30;20460;-88
2021/01/02 16:24:27;;;;;;;57.40;26.73;;;3.80;99.90;;;-143.32;100.00;97614.31;4753978;30;20456;-89
2021/01/02 16:26:54;;;;;;;55.77;27.23;;;3.90;99.90;;;-143.32;100.00;97563.16;4753352;30;20562;-88
2021/01/02 16:29:24;;;;;;;57.00;27.80;;;3.90;99.90;;;-143.32;100.00;97597.94;4753747;30;20452;-88
2021/01/02 16:31:54;;;;;;;60.60;27.80;;;4.00;99.90;;;-143.32;100.00;97618.41;4753344;30;20465;-89
2021/01/02 16:34:26;;;;;;;60.07;27.67;;;3.90;99.90;;;-143.32;100.00;97548.84;4753203;30;20524;-89
2021/01/02 16:37:01;;;;;;;66.77;28.80;;;3.80;99.90;;;-143.32;100.00;97575.44;4753267;30;20641;-88
2021/01/02 16:55:30;;;;;;;58.90;25.77;;;3.70;99.90;;;-143.32;100.00;97597.94;4664714;30;20591;-88
2021/01/02 16:57:58;;;;;;;62.70;27.60;;;3.80;99.90;;;-143.32;100.00;97583.63;4736505;30;20456;-87
2021/01/02 17:04:06;;;;;;;62.27;27.87;;;3.80;99.90;;;-143.32;100.00;97618.41;4753746;30;20466;-89
2021/01/02 17:06:32;;;;;;;60.87;28.23;;;3.90;99.90;;;-143.32;100.00;97616.38;4753317;30;20460;-92
2021/01/02 17:09:01;;;;;;;62.43;27.90;;;3.70;99.90;;;-143.32;100.00;97585.69;4753790;30;20830;-89
2021/01/02 17:12:23;;;;;;;64.33;29.17;;;3.80;99.90;;;-143.32;100.00;97600.00;4753158;30;20829;-89
2021/01/02 17:14:58;;;;;;;72.70;27.53;;;3.80;99.90;;;-143.32;100.00;97622.50;4752597;30;20496;-91
2021/01/02 17:17:27;;;;;;;61.60;28.90;;;3.80;99.90;;;-143.32;100.00;97591.81;4752961;30;20483;-91
2021/01/02 17:19:56;;;;;;;61.83;28.77;;;3.80;99.90;;;-143.32;100.00;97565.22;4753551;30;20479;-87
2021/01/02 17:22:23;;;;;;;64.40;28.67;;;3.90;99.90;;;-143.32;100.00;97618.41;4752791;30;20472;-88
2021/01/02 17:25:44;;;;;;;67.20;29.57;;;3.80;99.90;;;-143.32;100.00;97620.47;4752603;30;20541;-88
2021/01/02 17:28:11;;;;;;;66.87;29.33;;;3.80;99.90;;;-143.32;100.00;97597.94;4715448;30;20466;-88
2021/01/02 17:30:39;;;;;;;58.60;27.43;;;3.80;99.90;;;-143.32;100.00;97620.47;4715232;30;20463;-89
2021/01/02 17:39:38;;;;;;;92.60;29.57;;;3.80;99.90;;;-143.32;100.00;97600.00;4752830;30;20762;-90
2021/01/02 17:42:09;;;;;;;66.70;30.00;;;3.70;99.90;;;-143.32;100.00;97591.81;4752464;30;21020;-90
2021/01/02 17:44:50;;;;;;;62.43;29.47;;;3.70;99.90;;;-143.32;100.00;97610.22;4753248;30;20432;-91
2021/01/02 17:47:24;;;;;;;66.07;30.70;;;3.70;99.90;;;-143.32;100.00;97630.69;4752837;30;20493;-88
2021/01/02 17:49:53;;;;;;;65.87;31.57;;;3.70;99.90;;;-143.32;100.00;97606.13;4752991;30;20905;-91
2021/01/02 17:52:30;;;;;;;64.90;30.20;;;3.70;99.90;;;-143.32;100.00;97649.09;4753191;30;20940;-90
2021/01/02 17:54:59;;;;;;;65.70;29.90;;;3.70;99.90;;;-143.32;100.00;97608.19;4753229;30;20519;-92
2021/01/02 17:57:26;;;;;;;65.53;28.10;;;3.70;99.90;;;-143.32;100.00;97604.09;4753474;30;20566;-91
2021/01/02 17:59:55;;;;;;;63.47;29.27;;;3.70;99.90;;;-143.32;100.00;97612.28;4753676;30;21066;-91
2021/01/02 18:02:23;;;;;;;75.80;31.17;;;3.60;99.90;;;-143.32;100.00;97620.47;4753378;30;20477;-90
2021/01/02 18:04:52;;;;;;;61.60;28.67;;;3.60;99.90;;;-143.32;100.00;97634.78;4752863;30;20456;-89
2021/01/02 18:11:33;;;;;;;73.87;33.37;;;3.50;99.90;;;-143.32;100.00;97579.53;4753842;30;20415;-87
2021/01/02 18:17:01;;;;;;;88.57;36.20;;;3.50;99.90;;;-143.32;100.00;97634.78;4744696;30;20963;-91
2021/01/02 18:24:27;;;;;;;81.00;35.80;;;3.50;99.90;;;-143.32;100.00;97569.31;4716083;30;21020;-88
2021/01/02 18:35:36;;;;;;;;;;;;;;;;;;;;;
2021/01/02 18:41:45;;;;;;;70.93;31.53;;;3.40;99.90;;;-143.32;100.00;97618.41;4683661;30;20903;-89
2021/01/02 18:44:31;;;;;;;74.13;34.07;;;3.40;99.90;;;-143.32;100.00;97595.91;4744282;30;20494;-89
2021/01/02 18:47:11;;;;;;;74.37;32.90;;;3.30;99.90;;;-143.32;100.00;97620.47;4756606;30;20459;-90
2021/01/02 18:54:16;;;;;;;76.87;34.10;;;3.30;99.90;;;-143.32;100.00;97620.47;4737408;30;20963;-91
2021/01/02 18:56:48;;;;;;;79.57;33.83;;;3.30;99.90;;;-143.32;100.00;97610.22;4740800;30;20824;-90
2021/01/02 19:03:53;;;;;;;73.43;35.53;;;3.30;99.90;;;-143.32;100.00;97587.72;4736528;30;20464;-89
2021/01/02 19:06:36;;;;;;;71.30;31.97;;;3.40;99.90;;;-143.32;100.00;97624.53;4740593;30;20460;-90
2021/01/02 19:09:03;;;;;;;80.37;33.33;;;3.40;99.90;;;-143.32;100.00;97597.94;4755976;30;20467;-89
2021/01/02 19:12:27;;;;;;;65.67;33.83;;;3.40;99.90;;;-143.32;100.00;97632.72;4754924;30;20831;-91
2021/01/02 19:14:55;;;;;;;70.03;31.83;;;3.20;99.90;;;-143.32;100.00;97628.63;4754594;30;20499;-90
2021/01/02 19:17:23;;;;;;;71.57;31.60;;;3.30;99.90;;;-143.32;100.00;97661.38;4755723;30;20820;-90
2021/01/02 19:19:51;;;;;;;71.20;31.80;;;3.40;99.90;;;-143.32;100.00;97638.88;4755389;30;20468;-87
2021/01/02 19:22:20;;;;;;;67.50;31.50;;;3.40;99.90;;;-143.32;100.00;97612.28;4754755;30;20475;-91
2021/01/02 19:24:48;;;;;;;67.17;32.63;;;3.60;99.90;;;-143.32;100.00;97616.38;4755002;30;20828;-90
2021/01/02 19:27:19;;;;;;;64.63;31.23;;;3.40;99.90;;;-143.32;100.00;97651.16;4754739;30;20471;-89
2021/01/02 22:29:38;;;;;;;110.00;41.87;;;3.30;99.90;;;-143.32;100.00;97626.59;5562088;24;20577;-88
2021/01/02 22:32:25;;;;;;;103.73;41.70;;;3.30;99.90;;;-143.32;100.00;97659.31;4755378;30;20464;-88
2021/01/02 22:34:54;;;;;;;100.60;38.87;;;3.30;99.90;;;-143.32;100.00;97636.81;4755746;30;20492;-86
2021/01/02 22:40:49;;;;;;;94.80;38.80;;;3.20;99.90;;;-143.32;100.00;97612.28;4683461;30;20531;-87
2021/01/02 22:43:16;;;;;;;92.37;38.33;;;3.20;99.90;;;-143.32;100.00;97616.38;4683497;30;20492;-86
2021/01/02 22:45:43;;;;;;;95.63;41.07;;;3.30;99.90;;;-143.32;100.00;97593.84;4751036;30;20467;-87
2021/01/02 22:48:10;;;;;;;104.10;41.07;;;3.30;99.90;;;-143.32;100.00;97618.41;4755134;30;20498;-87
2021/01/02 22:50:40;;;;;;;91.23;38.93;;;3.30;99.90;;;-143.32;100.00;97645.00;4755261;30;20475;-87
2021/01/02 22:53:06;;;;;;;94.93;38.20;;;3.40;99.90;;;-143.32;100.00;97622.50;4755304;30;20502;-87
2021/01/02 22:56:01;;;;;;;96.17;40.07;;;3.30;99.90;;;-143.32;100.00;97612.28;4755232;30;20460;-87
2021/01/02 22:58:28;;;;;;;101.50;38.90;;;3.40;99.90;;;-143.32;100.00;97669.56;4754703;30;20503;-86
2021/01/02 23:01:01;;;;;;;105.40;39.77;;;3.30;99.90;;;-143.32;100.00;97612.28;4758470;30;20472;-87
2021/01/02 23:03:28;;;;;;;103.40;38.77;;;3.40;99.90;;;-143.32;100.00;97667.50;4769954;30;20815;-87
2021/01/02 23:05:55;;;;;;;85.83;36.30;;;3.40;99.90;;;-143.32;100.00;97651.16;4772717;30;21025;-86
2021/01/02 23:08:36;;;;;;;90.77;38.60;;;3.40;99.90;;;-143.32;100.00;97622.50;4767764;30;20503;-86
2021/01/02 23:11:03;;;;;;;98.90;40.00;;;3.30;99.90;;;-143.32;100.00;97634.78;4755225;30;20464;-86
2021/01/02 23:17:37;;;;;;;99.87;39.77;;;3.50;99.90;;;-143.32;100.00;97610.22;4731017;30;20454;-86
2021/01/02 23:20:05;;;;;;;98.27;40.47;;;3.40;99.90;;;-143.32;100.00;97618.41;4754989;30;20456;-86
2021/01/02 23:22:36;;;;;;;93.60;39.30;;;3.20;99.90;;;-143.32;100.00;97634.78;4754596;30;20513;-88
2021/01/02 23:28:59;;;;;;;97.20;39.30;;;3.40;99.90;;;-143.32;100.00;97640.91;4731170;30;20467;-86
2021/01/02 23:31:33;;;;;;;103.40;41.07;;;3.60;99.90;;;-143.32;100.00;97655.22;4771680;30;20507;-87
2021/01/02 23:34:01;;;;;;;92.20;39.00;;;3.40;99.90;;;-143.32;100.00;97649.09;4772196;30;20491;-88
2021/01/02 23:36:28;;;;;;;92.13;38.57;;;3.40;99.90;;;-143.32;100.00;97620.47;4772434;30;20975;-86
2021/01/02 23:38:57;;;;;;;93.87;39.93;;;3.40;99.90;;;-143.32;100.00;97626.59;4765034;30;20484;-87
2021/01/02 23:41:28;;;;;;;93.13;40.07;;;3.50;99.90;;;-143.32;100.00;97630.69;4754398;30;20468;-86
2021/01/02 23:43:54;;;;;;;100.93;41.40;;;3.40;99.90;;;-143.32;100.00;97638.88;4754599;30;20545;-87
2021/01/02 23:46:24;;;;;;;102.37;39.80;;;3.40;99.90;;;-143.32;100.00;97624.53;4736594;30;20497;-88
2021/01/02 23:48:54;;;;;;;99.00;40.70;;;3.50;99.90;;;-143.32;100.00;97581.59;4743765;30;21026;-86
2021/01/02 23:51:26;;;;;;;94.03;39.60;;;3.50;99.90;;;-143.32;100.00;97546.81;4736686;30;20953;-87
2021/01/02 23:53:53;;;;;;;89.20;38.60;;;3.40;99.90;;;-143.32;100.00;97614.31;4736350;30;20489;-87
2021/01/02 23:56:20;;;;;;;108.77;42.07;;;3.40;99.90;;;-143.32;100.00;97606.13;4745332;30;20483;-87
2021/01/02 23:58:48;;;;;;;101.37;42.70;;;3.40;99.90;;;-143.32;100.00;97622.50;4753975;30;20521;-86
